Time;durP1;ratioP1;P1;durP2;ratioP2;P2;SDS_P1;SDS_P2;PMS_P1;PMS_P2;Temp;Humidity;BMP_temperature;BMP_pressure;BME280_temperature;BME280_humidity;BME280_pressure;Samples;Min_cycle;Max_cycle;Signal;HPM_P1;HPM_P2
2022/10/13 00:02:00;;;;;;;;;;;;;;;;;;5039743;28;19963;-67
2022/10/13 00:04:25;;;;;;;;;;;;;;;;;;5051232;28;19917;-67
2022/10/13 00:06:51;;;;;;;;;;;;;;;;;;5037111;28;20295;-67
2022/10/13 00:09:16;;;;;;;;;;;;;;;;;;5037650;28;19961;-67
2022/10/13 00:11:41;;;;;;;;;;;;;;;;;;5040407;28;20195;-66
2022/10/13 00:14:06;;;;;;;;;;;;;;;;;;5042925;28;20024;-67
2022/10/13 00:16:31;;;;;;;;;;;;;;;;;;5051216;28;20381;-67
2022/10/13 00:18:56;;;;;;;;;;;;;;;;;;5052522;28;20338;-66
2022/10/13 00:21:21;;;;;;;;;;;;;;;;;;5051378;28;19918;-66
2022/10/13 00:23:46;;;;;;;;;;;;;;;;;;5043457;28;20023;-67
2022/10/13 00:26:12;;;;;;;;;;;;;;;;;;5044792;28;19967;-67
2022/10/13 00:28:37;;;;;;;;;;;;;;;;;;5044367;28;20325;-67
2022/10/13 00:31:02;;;;;;;;;;;;;;;;;;5051188;28;19909;-67
2022/10/13 00:33:27;;;;;;;;;;;;;;;;;;5050712;28;19916;-67
2022/10/13 00:35:52;;;;;;;;;;;;;;;;;;5051046;28;20411;-67
2022/10/13 00:38:17;;;;;;;;;;;;;;;;;;5054266;28;19958;-67
2022/10/13 00:40:42;;;;;;;;;;;;;;;;;;5049999;28;19921;-67
2022/10/13 00:43:07;;;;;;;;;;;;;;;;;;5050253;28;19916;-67
2022/10/13 00:45:32;;;;;;;;;;;;;;;;;;5042134;28;19920;-67
2022/10/13 00:47:58;;;;;;;;;;;;;;;;;;5032564;28;20834;-67
2022/10/13 00:50:23;;;;;;;;;;;;;;;;;;5044453;28;19917;-67
2022/10/13 00:52:48;;;;;;;;;;;;;;;;;;5050641;28;20367;-66
2022/10/13 00:55:13;;;;;;;;;;;;;;;;;;5050682;28;20307;-67
2022/10/13 00:57:38;;;;;;;;;;;;;;;;;;5024446;28;19913;-67
2022/10/13 01:00:03;;;;;;;;;;;;;;;;;;5035550;28;19920;-67
2022/10/13 01:02:28;;;;;;;;;;;;;;;;;;5050740;28;19943;-67
2022/10/13 01:04:53;;;;;;;;;;;;;;;;;;5049919;28;19921;-67
2022/10/13 01:07:19;;;;;;;;;;;;;;;;;;5050248;28;20015;-67
2022/10/13 01:09:44;;;;;;;;;;;;;;;;;;5043057;28;20015;-67
2022/10/13 01:12:10;;;;;;;;;;;;;;;;;;5046437;28;20414;-67
2022/10/13 01:14:35;;;;;;;;;;;;;;;;;;5044570;28;19916;-67
2022/10/13 01:17:00;;;;;;;;;;;;;;;;;;5050055;28;20315;-67
2022/10/13 01:19:25;;;;;;;;;;;;;;;;;;5051376;28;20273;-67
2022/10/13 01:21:50;;;;;;;;;;;;;;;;;;5049621;28;20391;-67
2022/10/13 01:24:16;;;;;;;;;;;;;;;;;;5046568;28;19917;-67
2022/10/13 01:26:41;;;;;;;;;;;;;;;;;;5031267;28;19920;-67
2022/10/13 01:29:06;;;;;;;;;;;;;;;;;;5048966;28;19916;-67
2022/10/13 01:31:31;;;;;;;;;;;;;;;;;;5045910;28;19913;-67
2022/10/13 01:33:56;;;;;;;;;;;;;;;;;;5045786;28;20356;-67
2022/10/13 01:36:21;;;;;;;;;;;;;;;;;;5056643;28;20268;-67
2022/10/13 01:38:46;;;;;;;;;;;;;;;;;;5052802;28;20422;-67
2022/10/13 01:41:11;;;;;;;;;;;;;;;;;;5056417;28;20281;-67
2022/10/13 01:43:37;;;;;;;;;;;;;;;;;;5056715;28;19919;-67
2022/10/13 01:46:02;;;;;;;;;;;;;;;;;;5060821;28;20310;-67
2022/10/13 01:48:27;;;;;;;;;;;;;;;;;;5038250;28;20310;-67
2022/10/13 01:50:52;;;;;;;;;;;;;;;;;;5048437;28;20008;-67
2022/10/13 01:53:17;;;;;;;;;;;;;;;;;;5056277;28;19948;-67
2022/10/13 01:55:42;;;;;;;;;;;;;;;;;;5057259;28;19920;-67
2022/10/13 01:58:08;;;;;;;;;;;;;;;;;;5054734;28;19990;-67
2022/10/13 02:00:33;;;;;;;;;;;;;;;;;;5040675;28;20434;-68
2022/10/13 02:02:58;;;;;;;;;;;;;;;;;;5058720;28;20380;-67
2022/10/13 02:05:23;;;;;;;;;;;;;;;;;;5043424;28;19921;-67
2022/10/13 02:07:48;;;;;;;;;;;;;;;;;;5054858;28;19921;-67
2022/10/13 02:10:13;;;;;;;;;;;;;;;;;;5055898;28;20003;-67
2022/10/13 02:12:38;;;;;;;;;;;;;;;;;;5052228;28;19959;-67
2022/10/13 02:15:03;;;;;;;;;;;;;;;;;;5055923;28;19916;-67
2022/10/13 02:17:31;;;;;;;;;;;;;;;;;;5052180;28;20475;-67
2022/10/13 02:19:56;;;;;;;;;;;;;;;;;;5051489;28;20414;-67
2022/10/13 02:22:21;;;;;;;;;;;;;;;;;;5049885;28;19920;-67
2022/10/13 02:24:46;;;;;;;;;;;;;;;;;;5057316;28;19923;-67
2022/10/13 02:27:11;;;;;;;;;;;;;;;;;;5046118;28;20492;-67
2022/10/13 02:29:36;;;;;;;;;;;;;;;;;;5052425;28;20368;-67
2022/10/13 02:32:02;;;;;;;;;;;;;;;;;;5056740;28;19963;-67
2022/10/13 02:34:27;;;;;;;;;;;;;;;;;;5055518;28;19923;-67
2022/10/13 02:36:52;;;;;;;;;;;;;;;;;;5053735;28;19966;-67
2022/10/13 02:39:17;;;;;;;;;;;;;;;;;;5059119;28;19935;-67
2022/10/13 02:41:42;;;;;;;;;;;;;;;;;;5056369;28;20437;-67
2022/10/13 02:44:07;;;;;;;;;;;;;;;;;;5051193;28;19921;-67
2022/10/13 02:46:32;;;;;;;;;;;;;;;;;;5031821;28;19921;-67
2022/10/13 02:48:57;;;;;;;;;;;;;;;;;;5053292;28;19908;-67
2022/10/13 02:51:22;;;;;;;;;;;;;;;;;;5052835;28;20300;-67
2022/10/13 02:53:48;;;;;;;;;;;;;;;;;;5053474;28;19974;-68
2022/10/13 02:56:13;;;;;;;;;;;;;;;;;;5043923;28;20319;-67
2022/10/13 02:58:38;;;;;;;;;;;;;;;;;;5046308;28;19913;-67
2022/10/13 03:01:03;;;;;;;;;;;;;;;;;;5052189;28;19921;-67
2022/10/13 03:03:28;;;;;;;;;;;;;;;;;;5052779;28;19936;-67
2022/10/13 03:05:53;;;;;;;;;;;;;;;;;;5051963;28;20311;-67
2022/10/13 03:08:18;;;;;;;;;;;;;;;;;;5052009;28;19913;-67
2022/10/13 03:10:43;;;;;;;;;;;;;;;;;;5047112;28;19964;-67
2022/10/13 03:13:09;;;;;;;;;;;;;;;;;;5042920;28;20257;-67
2022/10/13 03:15:34;;;;;;;;;;;;;;;;;;5040509;28;20373;-67
2022/10/13 03:17:59;;;;;;;;;;;;;;;;;;5040315;28;19986;-67
2022/10/13 03:20:24;;;;;;;;;;;;;;;;;;5033561;28;20368;-67
2022/10/13 03:22:49;;;;;;;;;;;;;;;;;;5042918;28;19920;-67
2022/10/13 03:25:14;;;;;;;;;;;;;;;;;;5048867;28;19921;-67
2022/10/13 03:27:39;;;;;;;;;;;;;;;;;;5047358;28;19979;-67
2022/10/13 03:30:04;;;;;;;;;;;;;;;;;;5039431;28;19913;-67
2022/10/13 03:32:30;;;;;;;;;;;;;;;;;;5037838;28;20347;-67
2022/10/13 03:34:55;;;;;;;;;;;;;;;;;;5048992;28;19947;-67
2022/10/13 03:37:20;;;;;;;;;;;;;;;;;;5051246;28;20288;-67
2022/10/13 03:39:45;;;;;;;;;;;;;;;;;;5048012;28;20353;-67
2022/10/13 03:42:11;;;;;;;;;;;;;;;;;;5043483;28;19913;-67
2022/10/13 03:44:36;;;;;;;;;;;;;;;;;;5040519;28;20245;-67
2022/10/13 03:47:01;;;;;;;;;;;;;;;;;;5040167;28;20396;-67
2022/10/13 03:49:27;;;;;;;;;;;;;;;;;;5052021;28;19987;-67
2022/10/13 03:51:52;;;;;;;;;;;;;;;;;;5039013;28;19928;-67
2022/10/13 03:54:17;;;;;;;;;;;;;;;;;;5033170;28;19963;-68
2022/10/13 03:56:42;;;;;;;;;;;;;;;;;;5047672;28;19924;-67
2022/10/13 03:59:08;;;;;;;;;;;;;;;;;;5048755;28;19949;-67
2022/10/13 04:01:33;;;;;;;;;;;;;;;;;;5043416;28;19912;-67
2022/10/13 04:03:58;;;;;;;;;;;;;;;;;;5045867;28;20421;-67
2022/10/13 04:06:23;;;;;;;;;;;;;;;;;;5050847;28;19925;-67
2022/10/13 04:08:48;;;;;;;;;;;;;;;;;;5038651;28;19933;-67
2022/10/13 04:11:13;;;;;;;;;;;;;;;;;;5048561;28;20348;-67
2022/10/13 04:13:39;;;;;;;;;;;;;;;;;;5052585;28;20412;-67
2022/10/13 04:16:04;;;;;;;;;;;;;;;;;;5048080;28;20008;-67
2022/10/13 04:18:29;;;;;;;;;;;;;;;;;;5048261;28;20361;-67
2022/10/13 04:20:54;;;;;;;;;;;;;;;;;;5044640;28;19920;-67
2022/10/13 04:23:19;;;;;;;;;;;;;;;;;;5050878;28;19912;-67
2022/10/13 04:25:44;;;;;;;;;;;;;;;;;;5038994;28;20348;-67
2022/10/13 04:28:09;;;;;;;;;;;;;;;;;;5033428;28;20012;-67
2022/10/13 04:30:34;;;;;;;;;;;;;;;;;;5033782;28;19909;-67
2022/10/13 04:32:59;;;;;;;;;;;;;;;;;;5036990;28;20381;-66
2022/10/13 04:35:25;;;;;;;;;;;;;;;;;;5032266;28;19909;-67
2022/10/13 04:37:50;;;;;;;;;;;;;;;;;;5032406;28;19909;-67
2022/10/13 04:40:15;;;;;;;;;;;;;;;;;;5032412;28;19920;-67
2022/10/13 04:42:40;;;;;;;;;;;;;;;;;;5038640;28;19913;-67
2022/10/13 04:45:05;;;;;;;;;;;;;;;;;;5040871;28;19908;-67
2022/10/13 04:47:30;;;;;;;;;;;;;;;;;;5050676;28;20019;-67
2022/10/13 04:49:55;;;;;;;;;;;;;;;;;;5050178;28;20007;-67
2022/10/13 04:52:20;;;;;;;;;;;;;;;;;;5051084;28;19978;-67
2022/10/13 04:54:46;;;;;;;;;;;;;;;;;;5051466;28;19914;-67
2022/10/13 04:57:11;;;;;;;;;;;;;;;;;;5036233;28;19916;-67
2022/10/13 04:59:36;;;;;;;;;;;;;;;;;;5037254;28;19913;-67
2022/10/13 05:02:02;;;;;;;;;;;;;;;;;;5035371;28;20581;-67
2022/10/13 05:04:27;;;;;;;;;;;;;;;;;;5042735;28;19913;-67
2022/10/13 05:06:52;;;;;;;;;;;;;;;;;;5050713;28;19925;-67
2022/10/13 05:09:17;;;;;;;;;;;;;;;;;;5051612;28;19988;-67
2022/10/13 05:11:43;;;;;;;;;;;;;;;;;;5046625;28;19972;-67
2022/10/13 05:14:08;;;;;;;;;;;;;;;;;;5035502;28;20284;-67
2022/10/13 05:16:33;;;;;;;;;;;;;;;;;;5046281;28;19920;-66
2022/10/13 05:18:58;;;;;;;;;;;;;;;;;;5036195;28;19913;-67
2022/10/13 05:21:23;;;;;;;;;;;;;;;;;;5040160;28;19925;-66
2022/10/13 05:23:48;;;;;;;;;;;;;;;;;;5039373;28;19919;-66
2022/10/13 05:26:13;;;;;;;;;;;;;;;;;;5050580;28;20094;-67
2022/10/13 05:28:38;;;;;;;;;;;;;;;;;;5049300;28;20000;-67
2022/10/13 05:31:03;;;;;;;;;;;;;;;;;;5047184;28;19962;-67
2022/10/13 05:33:29;;;;;;;;;;;;;;;;;;5037969;28;19955;-67
2022/10/13 05:35:54;;;;;;;;;;;;;;;;;;5032294;28;19916;-68
2022/10/13 05:38:19;;;;;;;;;;;;;;;;;;5032691;28;19962;-67
2022/10/13 05:40:44;;;;;;;;;;;;;;;;;;5034976;28;19916;-67
2022/10/13 05:43:09;;;;;;;;;;;;;;;;;;5044449;28;20315;-67
2022/10/13 05:45:34;;;;;;;;;;;;;;;;;;5043815;28;20389;-67
2022/10/13 05:48:00;;;;;;;;;;;;;;;;;;5048674;28;19946;-67
2022/10/13 05:50:25;;;;;;;;;;;;;;;;;;5043307;28;20032;-67
2022/10/13 05:52:50;;;;;;;;;;;;;;;;;;5035138;28;19979;-67
2022/10/13 05:55:15;;;;;;;;;;;;;;;;;;5047340;28;20344;-67
2022/10/13 05:57:40;;;;;;;;;;;;;;;;;;5050424;28;19913;-67
2022/10/13 06:00:06;;;;;;;;;;;;;;;;;;5049951;28;19921;-67
2022/10/13 06:02:33;;;;;;;;;;;;;;;;;;5049166;28;20284;-67
2022/10/13 06:04:58;;;;;;;;;;;;;;;;;;5050153;28;19912;-67
2022/10/13 06:07:23;;;;;;;;;;;;;;;;;;5049510;28;19921;-67
2022/10/13 06:09:49;;;;;;;;;;;;;;;;;;5043865;28;20004;-67
2022/10/13 06:12:14;;;;;;;;;;;;;;;;;;5031174;28;19928;-68
2022/10/13 06:14:39;;;;;;;;;;;;;;;;;;5030744;28;19916;-67
2022/10/13 06:17:04;;;;;;;;;;;;;;;;;;5031812;28;19932;-68
2022/10/13 06:19:29;;;;;;;;;;;;;;;;;;5038316;28;20395;-67
2022/10/13 06:21:54;;;;;;;;;;;;;;;;;;5053489;28;19999;-67
2022/10/13 06:24:19;;;;;;;;;;;;;;;;;;5049989;28;20004;-67
2022/10/13 06:26:44;;;;;;;;;;;;;;;;;;5053142;28;20036;-67
2022/10/13 06:29:10;;;;;;;;;;;;;;;;;;5053394;28;19955;-67
2022/10/13 06:31:35;;;;;;;;;;;;;;;;;;5053130;28;19916;-67
2022/10/13 06:34:00;;;;;;;;;;;;;;;;;;5052986;28;19909;-67
2022/10/13 06:36:25;;;;;;;;;;;;;;;;;;5053058;28;19909;-67
2022/10/13 06:38:50;;;;;;;;;;;;;;;;;;5053038;28;19912;-67
2022/10/13 06:41:15;;;;;;;;;;;;;;;;;;5052812;28;19956;-67
2022/10/13 06:43:40;;;;;;;;;;;;;;;;;;5052920;28;19921;-67
2022/10/13 06:46:05;;;;;;;;;;;;;;;;;;5034440;28;19959;-67
2022/10/13 06:48:31;;;;;;;;;;;;;;;;;;5034513;28;19909;-67
2022/10/13 06:50:56;;;;;;;;;;;;;;;;;;5033994;28;20358;-67
2022/10/13 06:53:21;;;;;;;;;;;;;;;;;;5033753;28;19909;-67
2022/10/13 06:55:46;;;;;;;;;;;;;;;;;;5051869;28;19952;-67
2022/10/13 06:58:11;;;;;;;;;;;;;;;;;;5052293;28;19963;-67
2022/10/13 07:00:36;;;;;;;;;;;;;;;;;;5053110;28;19909;-67
2022/10/13 07:03:01;;;;;;;;;;;;;;;;;;5052430;28;20003;-67
2022/10/13 07:05:27;;;;;;;;;;;;;;;;;;5052895;28;19970;-67
2022/10/13 07:07:52;;;;;;;;;;;;;;;;;;5045287;28;19917;-67
2022/10/13 07:10:18;;;;;;;;;;;;;;;;;;5033742;28;19920;-67
2022/10/13 07:12:43;;;;;;;;;;;;;;;;;;5033678;28;19917;-67
2022/10/13 07:15:08;;;;;;;;;;;;;;;;;;5046361;28;19992;-67
2022/10/13 07:17:33;;;;;;;;;;;;;;;;;;5052149;28;19946;-67
2022/10/13 07:19:58;;;;;;;;;;;;;;;;;;5052219;28;19959;-67
2022/10/13 07:22:23;;;;;;;;;;;;;;;;;;5052713;28;19913;-67
2022/10/13 07:24:48;;;;;;;;;;;;;;;;;;5052321;28;19995;-67
2022/10/13 07:27:14;;;;;;;;;;;;;;;;;;5052205;28;19956;-67
2022/10/13 07:29:39;;;;;;;;;;;;;;;;;;5052120;28;19919;-67
2022/10/13 07:32:04;;;;;;;;;;;;;;;;;;5051482;28;19959;-67
2022/10/13 07:34:30;;;;;;;;;;;;;;;;;;5049424;28;19913;-67
2022/10/13 07:36:55;;;;;;;;;;;;;;;;;;5033547;28;19909;-67
2022/10/13 07:39:20;;;;;;;;;;;;;;;;;;5033546;28;20387;-67
2022/10/13 07:41:45;;;;;;;;;;;;;;;;;;5033444;28;19909;-67
2022/10/13 07:44:10;;;;;;;;;;;;;;;;;;5039087;28;19997;-67
2022/10/13 07:46:35;;;;;;;;;;;;;;;;;;5051791;28;19948;-67
2022/10/13 07:49:00;;;;;;;;;;;;;;;;;;5050929;28;19913;-67
2022/10/13 07:51:25;;;;;;;;;;;;;;;;;;5051794;28;19913;-67
2022/10/13 07:53:51;;;;;;;;;;;;;;;;;;5050983;28;19913;-67
2022/10/13 07:56:16;;;;;;;;;;;;;;;;;;5051548;28;19960;-67
2022/10/13 07:58:41;;;;;;;;;;;;;;;;;;5048282;28;19954;-67
2022/10/13 08:01:06;;;;;;;;;;;;;;;;;;5036566;28;19956;-67
2022/10/13 08:03:31;;;;;;;;;;;;;;;;;;5032965;28;19963;-67
2022/10/13 08:05:56;;;;;;;;;;;;;;;;;;5044142;28;19913;-67
2022/10/13 08:08:21;;;;;;;;;;;;;;;;;;5052031;28;19987;-67
2022/10/13 08:10:47;;;;;;;;;;;;;;;;;;5051300;28;20418;-67
2022/10/13 08:13:12;;;;;;;;;;;;;;;;;;5051090;28;19917;-67
2022/10/13 08:15:37;;;;;;;;;;;;;;;;;;5051664;28;19954;-67
2022/10/13 08:18:02;;;;;;;;;;;;;;;;;;5051248;28;20000;-67
2022/10/13 08:20:29;;;;;;;;;;;;;;;;;;5051068;28;20008;-67
2022/10/13 08:22:54;;;;;;;;;;;;;;;;;;5050394;28;19951;-67
2022/10/13 08:25:19;;;;;;;;;;;;;;;;;;5051328;28;19909;-67
2022/10/13 08:27:44;;;;;;;;;;;;;;;;;;5051328;28;19919;-66
2022/10/13 08:30:09;;;;;;;;;;;;;;;;;;5051115;28;20201;-67
2022/10/13 08:32:35;;;;;;;;;;;;;;;;;;5051638;28;19916;-67
2022/10/13 08:35:00;;;;;;;;;;;;;;;;;;5050914;28;19913;-67
2022/10/13 08:37:25;;;;;;;;;;;;;;;;;;5051114;28;19913;-67
2022/10/13 08:39:50;;;;;;;;;;;;;;;;;;5049892;28;19912;-67
2022/10/13 08:42:16;;;;;;;;;;;;;;;;;;5050635;28;20265;-67
2022/10/13 08:44:42;;;;;;;;;;;;;;;;;;5050765;28;19916;-67
2022/10/13 08:47:07;;;;;;;;;;;;;;;;;;5051068;28;20348;-67
2022/10/13 08:49:32;;;;;;;;;;;;;;;;;;5050315;28;19916;-67
2022/10/13 08:51:58;;;;;;;;;;;;;;;;;;5050520;28;19909;-67
2022/10/13 08:54:23;;;;;;;;;;;;;;;;;;5050510;28;19924;-67
2022/10/13 08:56:49;;;;;;;;;;;;;;;;;;5049941;28;20467;-67
2022/10/13 08:59:16;;;;;;;;;;;;;;;;;;5050102;28;20031;-67
2022/10/13 09:01:42;;;;;;;;;;;;;;;;;;5050671;28;20352;-67
2022/10/13 09:04:07;;;;;;;;;;;;;;;;;;5050382;28;19991;-67
2022/10/13 09:06:32;;;;;;;;;;;;;;;;;;5050022;28;19916;-67
2022/10/13 09:08:57;;;;;;;;;;;;;;;;;;5050161;28;20009;-67
2022/10/13 09:11:22;;;;;;;;;;;;;;;;;;5050075;28;19921;-66
2022/10/13 09:13:47;;;;;;;;;;;;;;;;;;5047116;28;19909;-67
2022/10/13 09:16:12;;;;;;;;;;;;;;;;;;5050431;28;19913;-67
2022/10/13 09:18:38;;;;;;;;;;;;;;;;;;5050554;28;19967;-67
2022/10/13 09:21:03;;;;;;;;;;;;;;;;;;5050212;28;20380;-67
2022/10/13 09:23:28;;;;;;;;;;;;;;;;;;5050120;28;19909;-67
2022/10/13 09:25:54;;;;;;;;;;;;;;;;;;5050135;28;19916;-67
2022/10/13 09:28:20;;;;;;;;;;;;;;;;;;5050127;28;20273;-67
2022/10/13 09:30:47;;;;;;;;;;;;;;;;;;5050235;28;19909;-66
2022/10/13 09:33:13;;;;;;;;;;;;;;;;;;5050179;28;19915;-67
2022/10/13 09:35:38;;;;;;;;;;;;;;;;;;5050618;28;20000;-67
2022/10/13 09:38:03;;;;;;;;;;;;;;;;;;5048260;28;20352;-67
2022/10/13 09:40:31;;;;;;;;;;;;;;;;;;5050160;28;19916;-67
2022/10/13 09:42:57;;;;;;;;;;;;;;;;;;5049683;28;19968;-67
2022/10/13 09:45:22;;;;;;;;;;;;;;;;;;5050178;28;20004;-68
2022/10/13 09:47:47;;;;;;;;;;;;;;;;;;5049484;28;20395;-67
2022/10/13 09:50:12;;;;;;;;;;;;;;;;;;5050302;28;19974;-67
2022/10/13 09:52:37;;;;;;;;;;;;;;;;;;5053234;28;19960;-66
2022/10/13 09:55:02;;;;;;;;;;;;;;;;;;5045555;28;19975;-68
2022/10/13 09:57:28;;;;;;;;;;;;;;;;;;5035170;28;19916;-67
2022/10/13 09:59:53;;;;;;;;;;;;;;;;;;5035326;28;19913;-67
2022/10/13 10:02:18;;;;;;;;;;;;;;;;;;5035404;28;19919;-67
2022/10/13 10:04:43;;;;;;;;;;;;;;;;;;5044278;28;19966;-68
2022/10/13 10:07:09;;;;;;;;;;;;;;;;;;5053970;28;19917;-67
2022/10/13 10:09:34;;;;;;;;;;;;;;;;;;5053543;28;19917;-67
2022/10/13 10:11:59;;;;;;;;;;;;;;;;;;5053628;28;20358;-67
2022/10/13 10:14:24;;;;;;;;;;;;;;;;;;5054266;28;19998;-67
2022/10/13 10:16:49;;;;;;;;;;;;;;;;;;5053389;28;19909;-66
2022/10/13 10:19:14;;;;;;;;;;;;;;;;;;5053309;28;19909;-67
2022/10/13 10:21:39;;;;;;;;;;;;;;;;;;5053428;28;19992;-67
2022/10/13 10:24:04;;;;;;;;;;;;;;;;;;5053424;28;19916;-67
2022/10/13 10:26:30;;;;;;;;;;;;;;;;;;5053345;28;19956;-67
2022/10/13 10:28:55;;;;;;;;;;;;;;;;;;5053558;28;19909;-67
2022/10/13 10:31:20;;;;;;;;;;;;;;;;;;5038414;28;20586;-67
2022/10/13 10:33:45;;;;;;;;;;;;;;;;;;5034647;28;20285;-67
2022/10/13 10:36:15;;;;;;;;;;;;;;;;;;5034752;28;19967;-67
2022/10/13 10:38:41;;;;;;;;;;;;;;;;;;5049388;28;19908;-68
2022/10/13 10:41:06;;;;;;;;;;;;;;;;;;5053129;28;19916;-68
2022/10/13 10:43:31;;;;;;;;;;;;;;;;;;5052824;28;19913;-67
2022/10/13 10:45:56;;;;;;;;;;;;;;;;;;5053164;28;19909;-67
2022/10/13 10:48:21;;;;;;;;;;;;;;;;;;5052761;28;20011;-68
2022/10/13 10:50:46;;;;;;;;;;;;;;;;;;5052822;28;19990;-67
2022/10/13 10:53:11;;;;;;;;;;;;;;;;;;5052740;28;20000;-68
2022/10/13 10:55:37;;;;;;;;;;;;;;;;;;5048416;28;19952;-68
2022/10/13 10:58:02;;;;;;;;;;;;;;;;;;5053094;28;19958;-68
2022/10/13 11:00:27;;;;;;;;;;;;;;;;;;5052819;28;19909;-68
2022/10/13 11:02:52;;;;;;;;;;;;;;;;;;5052015;28;19942;-67
2022/10/13 11:05:17;;;;;;;;;;;;;;;;;;5052830;28;19913;-68
2022/10/13 11:07:42;;;;;;;;;;;;;;;;;;5053307;28;20317;-68
2022/10/13 11:10:07;;;;;;;;;;;;;;;;;;5052633;28;20003;-68
2022/10/13 11:12:33;;;;;;;;;;;;;;;;;;5051610;28;19917;-68
2022/10/13 11:14:58;;;;;;;;;;;;;;;;;;5052354;28;19913;-68
2022/10/13 11:17:23;;;;;;;;;;;;;;;;;;5053084;28;19923;-68
2022/10/13 11:19:48;;;;;;;;;;;;;;;;;;5052224;28;19949;-69
2022/10/13 11:22:13;;;;;;;;;;;;;;;;;;5052082;28;19915;-68
2022/10/13 11:24:38;;;;;;;;;;;;;;;;;;5052506;28;19995;-68
2022/10/13 11:27:03;;;;;;;;;;;;;;;;;;5052508;28;19920;-68
2022/10/13 11:29:28;;;;;;;;;;;;;;;;;;5051699;28;20356;-68
2022/10/13 11:31:54;;;;;;;;;;;;;;;;;;5052196;28;20374;-68
2022/10/13 11:34:19;;;;;;;;;;;;;;;;;;5052285;28;19951;-68
2022/10/13 11:36:44;;;;;;;;;;;;;;;;;;5051949;28;19964;-68
2022/10/13 11:39:09;;;;;;;;;;;;;;;;;;5051090;28;19955;-68
2022/10/13 11:41:34;;;;;;;;;;;;;;;;;;5052241;28;19908;-68
2022/10/13 11:43:59;;;;;;;;;;;;;;;;;;5052244;28;20364;-68
2022/10/13 11:46:24;;;;;;;;;;;;;;;;;;5048875;28;19915;-68
2022/10/13 11:48:50;;;;;;;;;;;;;;;;;;5052047;28;19908;-68
2022/10/13 11:51:15;;;;;;;;;;;;;;;;;;5051779;28;19916;-68
2022/10/13 11:53:40;;;;;;;;;;;;;;;;;;5048501;28;20015;-68
2022/10/13 11:56:05;;;;;;;;;;;;;;;;;;5050468;28;19951;-68
2022/10/13 11:58:30;;;;;;;;;;;;;;;;;;5051700;28;19958;-68
2022/10/13 12:00:55;;;;;;;;;;;;;;;;;;5049825;28;19909;-68
2022/10/13 12:03:21;;;;;;;;;;;;;;;;;;5044027;28;19919;-69
2022/10/13 12:05:46;;;;;;;;;;;;;;;;;;5051981;28;19923;-68
2022/10/13 12:08:11;;;;;;;;;;;;;;;;;;5051765;28;19944;-68
2022/10/13 12:10:36;;;;;;;;;;;;;;;;;;5051985;28;20276;-68
2022/10/13 12:13:02;;;;;;;;;;;;;;;;;;5051175;28;20048;-68
2022/10/13 12:15:27;;;;;;;;;;;;;;;;;;5051215;28;19913;-68
2022/10/13 12:17:52;;;;;;;;;;;;;;;;;;5051549;28;20007;-68
2022/10/13 12:20:17;;;;;;;;;;;;;;;;;;5050886;28;19955;-68
2022/10/13 12:22:42;;;;;;;;;;;;;;;;;;5050415;28;19924;-68
2022/10/13 12:25:07;;;;;;;;;;;;;;;;;;5032442;28;19928;-68
2022/10/13 12:27:32;;;;;;;;;;;;;;;;;;5032285;28;19913;-68
2022/10/13 12:29:58;;;;;;;;;;;;;;;;;;5032500;28;19909;-68
2022/10/13 12:32:23;;;;;;;;;;;;;;;;;;5032793;28;19940;-68
2022/10/13 12:34:48;;;;;;;;;;;;;;;;;;5050300;28;19909;-68
2022/10/13 12:37:13;;;;;;;;;;;;;;;;;;5050827;28;20050;-68
2022/10/13 12:39:38;;;;;;;;;;;;;;;;;;5051266;28;19963;-68
2022/10/13 12:42:03;;;;;;;;;;;;;;;;;;5050963;28;20353;-68
2022/10/13 12:44:28;;;;;;;;;;;;;;;;;;5050746;28;19931;-68
2022/10/13 12:46:55;;;;;;;;;;;;;;;;;;5051354;28;19924;-67
2022/10/13 12:49:20;;;;;;;;;;;;;;;;;;5050782;28;19963;-68
2022/10/13 12:51:45;;;;;;;;;;;;;;;;;;5050437;28;19913;-68
2022/10/13 12:54:10;;;;;;;;;;;;;;;;;;5048226;28;19919;-68
2022/10/13 12:56:35;;;;;;;;;;;;;;;;;;5050593;28;19909;-68
2022/10/13 12:59:00;;;;;;;;;;;;;;;;;;5050467;28;19996;-68
2022/10/13 13:01:25;;;;;;;;;;;;;;;;;;5050263;28;19948;-68
2022/10/13 13:03:50;;;;;;;;;;;;;;;;;;5050612;28;19916;-69
2022/10/13 13:06:16;;;;;;;;;;;;;;;;;;5050532;28;20413;-68
2022/10/13 13:08:41;;;;;;;;;;;;;;;;;;5050414;28;20399;-69
2022/10/13 13:11:06;;;;;;;;;;;;;;;;;;5049653;28;19960;-68
2022/10/13 13:13:31;;;;;;;;;;;;;;;;;;5050111;28;19913;-68
2022/10/13 13:15:56;;;;;;;;;;;;;;;;;;5050445;28;19909;-68
2022/10/13 13:18:21;;;;;;;;;;;;;;;;;;5050214;28;19935;-68
2022/10/13 13:20:47;;;;;;;;;;;;;;;;;;5050095;28;19923;-68
2022/10/13 13:23:12;;;;;;;;;;;;;;;;;;5049949;28;19908;-68
2022/10/13 13:25:37;;;;;;;;;;;;;;;;;;5032153;28;19909;-68
2022/10/13 13:28:02;;;;;;;;;;;;;;;;;;5049122;28;20019;-68
2022/10/13 13:30:27;;;;;;;;;;;;;;;;;;5050246;28;19999;-68
2022/10/13 13:32:52;;;;;;;;;;;;;;;;;;5050493;28;20436;-68
2022/10/13 13:35:17;;;;;;;;;;;;;;;;;;5049880;28;19936;-68
2022/10/13 13:37:43;;;;;;;;;;;;;;;;;;5049772;28;19913;-68
2022/10/13 13:40:08;;;;;;;;;;;;;;;;;;5050398;28;19909;-68
2022/10/13 13:42:33;;;;;;;;;;;;;;;;;;5050037;28;19916;-68
2022/10/13 13:44:58;;;;;;;;;;;;;;;;;;5047703;28;19913;-68
2022/10/13 13:47:23;;;;;;;;;;;;;;;;;;5049922;28;19963;-68
2022/10/13 13:49:49;;;;;;;;;;;;;;;;;;5049948;28;19909;-69
2022/10/13 13:52:14;;;;;;;;;;;;;;;;;;5049743;28;19909;-68
2022/10/13 13:54:39;;;;;;;;;;;;;;;;;;5047891;28;19909;-68
2022/10/13 13:57:04;;;;;;;;;;;;;;;;;;5050060;28;19999;-68
2022/10/13 13:59:29;;;;;;;;;;;;;;;;;;5049714;28;19948;-68
2022/10/13 14:01:54;;;;;;;;;;;;;;;;;;5049309;28;19938;-68
2022/10/13 14:04:19;;;;;;;;;;;;;;;;;;5049068;28;19912;-68
2022/10/13 14:06:44;;;;;;;;;;;;;;;;;;5032642;28;19924;-68
2022/10/13 14:09:10;;;;;;;;;;;;;;;;;;5040059;28;19909;-68
2022/10/13 14:11:35;;;;;;;;;;;;;;;;;;5051774;28;20003;-68
2022/10/13 14:14:00;;;;;;;;;;;;;;;;;;5049831;28;19913;-68
2022/10/13 14:16:26;;;;;;;;;;;;;;;;;;5049708;28;19909;-68
2022/10/13 14:18:51;;;;;;;;;;;;;;;;;;5049258;28;20435;-68
2022/10/13 14:21:16;;;;;;;;;;;;;;;;;;5049883;28;20003;-68
2022/10/13 14:23:45;;;;;;;;;;;;;;;;;;5049646;28;19963;-68
2022/10/13 14:26:10;;;;;;;;;;;;;;;;;;5049800;28;20280;-68
2022/10/13 14:28:35;;;;;;;;;;;;;;;;;;5049858;28;19913;-68
2022/10/13 14:31:01;;;;;;;;;;;;;;;;;;5039977;28;20011;-68
2022/10/13 14:33:26;;;;;;;;;;;;;;;;;;5031430;28;19952;-68
2022/10/13 14:35:51;;;;;;;;;;;;;;;;;;5033792;28;20000;-68
2022/10/13 14:38:16;;;;;;;;;;;;;;;;;;5050772;28;20180;-68
2022/10/13 14:40:41;;;;;;;;;;;;;;;;;;5051905;28;19913;-68
2022/10/13 14:43:06;;;;;;;;;;;;;;;;;;5037547;28;19971;-68
2022/10/13 14:45:31;;;;;;;;;;;;;;;;;;5050972;28;19913;-68
2022/10/13 14:47:56;;;;;;;;;;;;;;;;;;5053250;28;19912;-68
2022/10/13 14:50:21;;;;;;;;;;;;;;;;;;5053251;28;20300;-68
2022/10/13 14:52:47;;;;;;;;;;;;;;;;;;5050770;28;20506;-68
2022/10/13 14:55:12;;;;;;;;;;;;;;;;;;5052763;28;20320;-68
2022/10/13 14:57:37;;;;;;;;;;;;;;;;;;5053145;28;19916;-68
2022/10/13 15:00:02;;;;;;;;;;;;;;;;;;5053086;28;20012;-68
2022/10/13 15:02:27;;;;;;;;;;;;;;;;;;5052742;28;19916;-68
2022/10/13 15:04:52;;;;;;;;;;;;;;;;;;5053354;28;19924;-68
2022/10/13 15:07:17;;;;;;;;;;;;;;;;;;5053190;28;20436;-68
2022/10/13 15:09:43;;;;;;;;;;;;;;;;;;5052649;28;20001;-68
2022/10/13 15:12:08;;;;;;;;;;;;;;;;;;5052936;28;20288;-68
2022/10/13 15:14:33;;;;;;;;;;;;;;;;;;5052787;28;20387;-68
2022/10/13 15:16:58;;;;;;;;;;;;;;;;;;5052565;28;20357;-68
2022/10/13 15:19:23;;;;;;;;;;;;;;;;;;5052177;28;19920;-68
2022/10/13 15:21:48;;;;;;;;;;;;;;;;;;5052935;28;20364;-68
2022/10/13 15:24:14;;;;;;;;;;;;;;;;;;5052239;28;19915;-68
2022/10/13 15:26:39;;;;;;;;;;;;;;;;;;5051644;28;19974;-68
2022/10/13 15:29:04;;;;;;;;;;;;;;;;;;5043616;28;20339;-68
2022/10/13 15:31:29;;;;;;;;;;;;;;;;;;5033631;28;19920;-68
2022/10/13 15:33:55;;;;;;;;;;;;;;;;;;5033596;28;19917;-68
2022/10/13 15:36:20;;;;;;;;;;;;;;;;;;5042129;28;19916;-68
2022/10/13 15:38:45;;;;;;;;;;;;;;;;;;5040160;28;20380;-68
2022/10/13 15:41:10;;;;;;;;;;;;;;;;;;5044106;28;20328;-69
2022/10/13 15:43:35;;;;;;;;;;;;;;;;;;5048972;28;19920;-68
2022/10/13 15:46:01;;;;;;;;;;;;;;;;;;5048904;28;19943;-69
2022/10/13 15:48:26;;;;;;;;;;;;;;;;;;5048777;28;19923;-69
2022/10/13 15:50:51;;;;;;;;;;;;;;;;;;5045722;28;20495;-68
2022/10/13 15:53:16;;;;;;;;;;;;;;;;;;5050416;28;20020;-68
2022/10/13 15:55:41;;;;;;;;;;;;;;;;;;5051017;28;19917;-68
2022/10/13 16:00:34;;;;;;;;;;;;;;;;;;5045510;23;20067;-70
2022/10/13 16:02:59;;;;;;;;;;;;;;;;;;5048069;28;20003;-70
2022/10/13 16:05:24;;;;;;;;;;;;;;;;;;5027241;28;19921;-70
2022/10/13 16:07:49;;;;;;;;;;;;;;;;;;5045582;28;20023;-70
2022/10/13 16:10:14;;;;;;;;;;;;;;;;;;5037743;28;20008;-70
2022/10/13 16:14:10;;;;;;;;;;;;;;;;;;5121877;27;20399;-67
2022/10/13 16:16:35;;;;;;;;;;;;;;;;;;5127860;27;19954;-66
2022/10/13 16:19:00;;;;;;;;;;;;;;;;;;5128240;27;20140;-66
2022/10/13 16:21:26;;;;;;;;;;;;;;;;;;5117731;27;19912;-66
2022/10/13 16:23:51;;;;;;;;;;;;;;;;;;5116020;28;19912;-66
2022/10/13 16:26:16;;;;;;;;;;;;;;;;;;5121928;27;19916;-67
2022/10/13 16:28:41;;;;;;;;;;;;;;;;;;5111768;28;20554;-67
2022/10/13 16:31:07;;;;;;;;;;;;;;;;;;5118073;27;19912;-67
2022/10/13 16:33:32;;;;;;;;;;;;;;;;;;5130081;28;20010;-67
2022/10/13 16:35:57;;;;;;;;;;;;;;;;;;5120266;27;19915;-67